Time;durP1;ratioP1;P1;durP2;ratioP2;P2;SDS_P1;SDS_P2;PMS_P1;PMS_P2;Temp;Humidity;BMP_temperature;BMP_pressure;BME280_temperature;BME280_humidity;BME280_pressure;Samples;Min_cycle;Max_cycle;Signal;HPM_P1;HPM_P2
2021/03/21 00:02:24;;;;;;;24.35;16.42;;;;;;;4.93;86.37;100397.28;5094929;28;20055;-72
2021/03/21 00:04:52;;;;;;;22.40;14.80;;;;;;;4.89;85.10;100383.81;5094728;28;20481;-72
2021/03/21 00:07:18;;;;;;;22.17;14.80;;;;;;;4.96;84.24;100385.50;5094641;28;20032;-72
2021/03/21 00:09:47;;;;;;;21.77;14.73;;;;;;;4.89;85.02;100376.25;5094541;28;20054;-72
2021/03/21 00:12:13;;;;;;;22.90;15.23;;;;;;;4.94;84.25;100394.75;5076487;28;20431;-71
2021/03/21 00:14:38;;;;;;;23.13;15.00;;;;;;;4.84;84.91;100382.13;5076187;28;20085;-72
2021/03/21 00:17:04;;;;;;;24.08;15.75;;;;;;;5.06;83.92;100397.28;5094658;28;20024;-71
2021/03/21 00:19:32;;;;;;;22.70;15.52;;;;;;;4.97;84.51;100386.38;5094812;28;20031;-71
2021/03/21 00:21:59;;;;;;;23.20;15.45;;;;;;;4.95;85.58;100376.25;5075992;28;20040;-72
2021/03/21 00:24:25;;;;;;;23.80;16.05;;;;;;;5.07;83.32;100383.84;5076146;28;20036;-71
2021/03/21 00:26:51;;;;;;;24.10;16.50;;;;;;;5.06;84.21;100382.16;5093975;28;20469;-71
2021/03/21 00:29:16;;;;;;;23.50;15.68;;;;;;;4.98;84.23;100388.88;5076152;28;20181;-72
2021/03/21 00:31:42;;;;;;;22.75;15.88;;;;;;;5.08;83.43;100400.66;5094389;28;20081;-72
2021/03/21 00:34:11;;;;;;;24.23;15.52;;;;;;;5.01;82.09;100398.94;5094141;28;20493;-72
2021/03/21 00:36:43;;;;;;;22.08;14.82;;;;;;;5.04;83.28;100395.59;5094282;28;20024;-72
2021/03/21 00:39:10;;;;;;;21.95;14.90;;;;;;;5.03;82.26;100409.84;5076144;28;20027;-71
2021/03/21 00:41:35;;;;;;;23.25;15.00;;;;;;;5.05;83.52;100384.69;5094128;28;20056;-72
2021/03/21 00:44:01;;;;;;;21.02;14.93;;;;;;;5.13;82.99;100388.06;5075946;28;20113;-72
2021/03/21 00:46:28;;;;;;;24.05;15.88;;;;;;;4.96;85.36;100365.38;5075763;28;20056;-73
2021/03/21 00:48:54;;;;;;;23.35;15.57;;;;;;;5.06;83.97;100343.53;5094853;28;20024;-72
2021/03/21 00:51:21;;;;;;;19.15;13.82;;;;;;;4.94;84.19;100341.00;5094410;28;20034;-72
2021/03/21 00:53:52;;;;;;;19.90;13.45;;;;;;;4.98;84.14;100330.94;5093848;28;20081;-72
2021/03/21 00:56:35;;;;;;;21.40;14.48;;;;;;;4.83;83.79;100337.66;5093777;28;20455;-72
2021/03/21 00:59:02;;;;;;;20.60;13.65;;;;;;;4.88;83.58;100341.00;5075175;28;20050;-72
2021/03/21 01:01:30;;;;;;;19.27;13.38;;;;;;;4.96;83.60;100350.25;5075645;28;20483;-72
2021/03/21 01:03:58;;;;;;;20.60;12.80;;;;;;;4.95;82.34;100333.44;5093750;28;20024;-72
2021/03/21 01:06:24;;;;;;;20.55;13.88;;;;;;;4.92;83.03;100323.38;5093541;28;20420;-73
2021/03/21 01:08:57;;;;;;;19.90;13.60;;;;;;;4.97;82.78;100321.69;5075498;28;20032;-72
2021/03/21 01:11:29;;;;;;;18.10;12.93;;;;;;;5.07;82.62;100330.09;5093692;28;20484;-72
2021/03/21 01:14:01;;;;;;;20.02;14.02;;;;;;;4.96;82.80;100352.78;5075629;28;20067;-73
2021/03/21 01:16:39;;;;;;;19.15;13.73;;;;;;;5.06;82.79;100359.50;5093425;28;20039;-73
2021/03/21 01:19:13;;;;;;;19.63;12.82;;;;;;;4.95;83.97;100358.63;5093651;28;20039;-72
2021/03/21 01:21:44;;;;;;;20.73;13.77;;;;;;;5.09;83.95;100371.25;5093173;28;20024;-72
2021/03/21 01:24:12;;;;;;;18.67;13.35;;;;;;;5.06;82.20;100351.94;5075218;28;20027;-72
2021/03/21 01:26:38;;;;;;;19.15;13.43;;;;;;;4.94;83.68;100359.47;5074541;28;20491;-72
2021/03/21 01:29:04;;;;;;;16.42;12.02;;;;;;;4.83;83.20;100353.56;5093237;28;20024;-72
2021/03/21 01:31:29;;;;;;;15.05;11.27;;;;;;;4.84;82.99;100351.91;5074998;28;20028;-72
2021/03/21 01:33:55;;;;;;;15.65;11.40;;;;;;;4.71;84.21;100360.28;5093005;28;20028;-71
2021/03/21 01:36:33;;;;;;;15.70;11.32;;;;;;;4.64;85.94;100313.28;5093021;28;20144;-71
2021/03/21 01:39:04;;;;;;;16.77;11.73;;;;;;;4.57;87.05;100345.16;5074700;28;20028;-71
2021/03/21 01:41:32;;;;;;;11.43;8.68;;;;;;;4.59;87.94;100345.16;5092707;28;20110;-72
2021/03/21 01:43:58;;;;;;;17.95;12.18;;;;;;;4.55;88.25;100354.41;5074726;28;20417;-71
2021/03/21 01:47:01;;;;;;;15.82;11.57;;;;;;;4.56;87.65;100340.97;5092594;28;20092;-71
2021/03/21 01:49:35;;;;;;;17.33;11.75;;;;;;;4.49;87.26;100334.25;5074605;28;20039;-71
2021/03/21 01:52:04;;;;;;;18.58;12.10;;;;;;;4.57;87.36;100325.03;5074366;28;20043;-72
2021/03/21 01:54:31;;;;;;;14.75;9.85;;;;;;;4.45;88.55;100330.03;5092598;28;20032;-71
2021/03/21 01:57:00;;;;;;;17.20;12.00;;;;;;;4.61;87.81;100329.25;5092493;28;20063;-72
2021/03/21 01:59:30;;;;;;;16.55;11.50;;;;;;;4.50;89.19;100328.34;5092509;28;20024;-72
2021/03/21 02:02:04;;;;;;;15.30;11.43;;;;;;;4.55;88.07;100351.88;5092475;28;20469;-72
2021/03/21 02:04:31;;;;;;;14.50;10.25;;;;;;;4.48;89.37;100336.75;5092328;28;20505;-71
2021/03/21 02:07:26;;;;;;;13.68;10.68;;;;;;;4.60;88.89;100359.41;5073975;28;20026;-72
2021/03/21 02:10:01;;;;;;;15.10;10.48;;;;;;;4.51;90.07;100362.78;5092744;28;20030;-71
2021/03/21 02:12:33;;;;;;;13.25;9.35;;;;;;;4.33;88.69;100366.09;5091420;28;20036;-72
2021/03/21 02:15:20;;;;;;;15.13;10.57;;;;;;;4.45;88.72;100374.50;5074045;28;20028;-72
2021/03/21 02:17:55;;;;;;;13.55;9.43;;;;;;;4.42;88.63;100366.94;5074119;28;20063;-72
2021/03/21 02:20:25;;;;;;;13.30;9.02;;;;;;;4.33;89.86;100355.16;5092125;28;20123;-72
2021/03/21 02:22:58;;;;;;;14.88;10.20;;;;;;;4.37;88.08;100352.69;5092251;28;20499;-71
2021/03/21 02:26:21;;;;;;;13.30;9.75;;;;;;;4.28;88.93;100321.59;5073539;28;20024;-72
2021/03/21 02:29:12;;;;;;;14.70;9.25;;;;;;;4.25;88.34;100319.06;4990572;28;20062;-72
2021/03/21 02:32:00;;;;;;;14.93;8.88;;;;;;;4.18;88.38;100345.06;4974145;28;20436;-71
2021/03/21 02:34:51;;;;;;;16.05;10.70;;;;;;;4.23;88.76;100358.47;5070434;28;20464;-72
2021/03/21 02:37:41;;;;;;;16.10;10.63;;;;;;;4.20;89.65;100366.84;5060259;28;20550;-71
2021/03/21 02:40:31;;;;;;;15.63;10.05;;;;;;;4.18;89.06;100371.03;5047578;28;20025;-72
2021/03/21 02:43:17;;;;;;;17.20;11.13;;;;;;;4.14;90.34;100373.56;5071232;28;20086;-72
2021/03/21 02:45:49;;;;;;;16.88;10.35;;;;;;;4.14;91.01;100371.88;5071026;28;20032;-72
2021/03/21 02:48:22;;;;;;;14.93;9.77;;;;;;;4.13;90.44;100367.69;5071546;28;20031;-71
2021/03/21 02:50:55;;;;;;;12.32;8.75;;;;;;;4.09;91.43;100363.47;5053281;28;20029;-71
2021/03/21 02:53:40;;;;;;;11.00;7.43;;;;;;;4.05;90.85;100373.50;5054574;28;20032;-72
2021/03/21 02:56:10;;;;;;;11.63;8.45;;;;;;;4.01;92.08;100361.75;5071314;28;20032;-72
2021/03/21 02:58:59;;;;;;;13.18;8.20;;;;;;;4.09;91.68;100358.44;5070123;28;20078;-72
2021/03/21 03:01:38;;;;;;;11.85;7.55;;;;;;;3.98;91.82;100347.47;5071192;28;20028;-73
2021/03/21 03:04:11;;;;;;;10.77;7.93;;;;;;;4.00;92.07;100347.50;5071097;28;20025;-71
2021/03/21 03:06:44;;;;;;;10.07;7.30;;;;;;;3.95;92.45;100360.06;5071048;28;20024;-72
2021/03/21 03:09:19;;;;;;;10.85;8.02;;;;;;;4.01;92.80;100350.03;5069738;28;20025;-72
2021/03/21 03:12:01;;;;;;;12.02;8.75;;;;;;;4.06;93.12;100352.56;5071163;28;20035;-72
2021/03/21 03:14:34;;;;;;;10.27;7.38;;;;;;;4.03;93.05;100375.16;5070856;28;20040;-73
2021/03/21 03:17:28;;;;;;;8.82;6.82;;;;;;;4.04;93.01;100397.81;5069834;28;20047;-72
2021/03/21 03:20:15;;;;;;;10.40;7.15;;;;;;;4.00;93.26;100395.28;5071619;28;20032;-72
2021/03/21 03:22:52;;;;;;;8.88;6.85;;;;;;;4.03;92.71;100403.69;5070800;28;20082;-72
2021/03/21 03:25:36;;;;;;;10.73;6.85;;;;;;;3.99;92.19;100389.41;5053027;28;20413;-72
2021/03/21 03:28:14;;;;;;;10.15;7.13;;;;;;;4.13;91.58;100377.75;5069471;28;20119;-72
2021/03/21 03:30:54;;;;;;;8.77;6.20;;;;;;;4.02;91.99;100355.91;5071108;28;20577;-73
2021/03/21 03:33:23;;;;;;;9.20;6.63;;;;;;;4.02;92.65;100368.47;5071318;28;20036;-72
2021/03/21 03:35:50;;;;;;;9.25;7.22;;;;;;;4.05;92.67;100369.31;5070864;28;20029;-72
2021/03/21 03:38:19;;;;;;;10.20;7.07;;;;;;;4.00;93.25;100372.66;5070882;28;20032;-72
2021/03/21 03:40:51;;;;;;;10.50;7.57;;;;;;;4.06;91.93;100370.97;5070928;28;20435;-73
2021/03/21 03:43:37;;;;;;;8.80;6.45;;;;;;;3.98;92.04;100359.22;5070878;28;20405;-73
2021/03/21 03:46:19;;;;;;;8.65;6.38;;;;;;;4.04;92.02;100375.16;5052785;28;20127;-72
2021/03/21 03:49:01;;;;;;;;;;;;;;;4.01;93.04;100370.13;5071432;28;20120;-72
2021/03/21 03:51:43;;;;;;;6.10;4.28;;;;;;;3.90;93.27;100373.44;5070988;28;20305;-72
2021/03/21 03:54:25;;;;;;;8.45;6.32;;;;;;;3.98;91.88;100380.16;5070545;28;20021;-71
2021/03/21 03:57:16;;;;;;;10.90;7.30;;;;;;;3.90;93.19;100365.91;5070648;28;20025;-72
2021/03/21 04:00:04;;;;;;;8.80;6.90;;;;;;;3.97;92.77;100355.03;5070655;28;20474;-71
2021/03/21 04:03:00;;;;;;;9.32;6.97;;;;;;;3.81;93.21;100358.28;5070660;28;20071;-71
2021/03/21 04:05:39;;;;;;;9.23;6.70;;;;;;;3.92;93.44;100352.47;5070416;28;20037;-72
2021/03/21 04:08:25;;;;;;;8.85;6.70;;;;;;;3.93;94.15;100355.84;5070677;28;20226;-72
2021/03/21 04:10:59;;;;;;;8.25;6.30;;;;;;;3.83;93.52;100344.91;5069317;28;20032;-71
2021/03/21 04:13:36;;;;;;;10.30;6.88;;;;;;;3.83;93.84;100346.56;5069124;28;20046;-71
2021/03/21 04:16:17;;;;;;;7.43;5.57;;;;;;;3.81;94.38;100334.00;5070366;28;20038;-71
2021/03/21 04:18:59;;;;;;;10.05;6.82;;;;;;;3.74;93.77;100342.34;5070360;28;20031;-72
2021/03/21 04:21:32;;;;;;;10.10;6.82;;;;;;;3.82;93.63;100362.50;5069118;28;20041;-72
2021/03/21 04:24:04;;;;;;;9.77;6.95;;;;;;;3.77;93.94;100349.91;5069047;28;20028;-73
2021/03/21 04:26:39;;;;;;;9.05;7.07;;;;;;;3.83;93.56;100354.09;5068850;28;20057;-72
2021/03/21 04:29:34;;;;;;;10.18;7.35;;;;;;;3.77;94.17;100349.03;5070535;28;20040;-72
2021/03/21 04:32:08;;;;;;;11.13;7.68;;;;;;;3.73;93.62;100345.69;5066377;28;20506;-72
2021/03/21 04:34:39;;;;;;;10.23;7.20;;;;;;;3.80;93.42;100357.47;5070165;28;20032;-72
2021/03/21 04:37:06;;;;;;;11.20;7.45;;;;;;;3.82;94.67;100352.44;5074010;28;20025;-72
2021/03/21 04:39:35;;;;;;;11.85;8.38;;;;;;;3.81;93.94;100348.22;5073991;28;20032;-72
2021/03/21 04:42:02;;;;;;;11.07;8.27;;;;;;;3.83;93.40;100359.97;5073746;28;20043;-72
2021/03/21 04:44:39;;;;;;;12.57;8.35;;;;;;;3.78;94.67;100368.34;5072478;28;20414;-72
2021/03/21 04:47:17;;;;;;;11.43;8.48;;;;;;;3.81;94.04;100350.75;5073740;28;20471;-71
2021/03/21 04:49:43;;;;;;;10.50;8.25;;;;;;;3.89;94.56;100390.19;5074227;28;20032;-73
2021/03/21 04:52:46;;;;;;;10.80;8.02;;;;;;;3.93;93.53;100398.59;5073433;28;20031;-72
2021/03/21 04:55:21;;;;;;;10.80;7.85;;;;;;;3.98;93.42;100392.75;5072716;28;20037;-69
2021/03/21 04:57:49;;;;;;;11.73;8.73;;;;;;;3.95;93.26;100386.88;5070906;28;20025;-71
2021/03/21 05:00:36;;;;;;;11.48;8.15;;;;;;;3.83;93.41;100387.63;5070790;28;20032;-71
2021/03/21 05:03:46;;;;;;;12.43;8.75;;;;;;;3.95;94.25;100399.44;5070969;28;20078;-71
2021/03/21 05:06:42;;;;;;;12.40;9.18;;;;;;;3.92;93.07;100402.75;4990249;28;20041;-71
2021/03/21 05:09:16;;;;;;;14.05;9.52;;;;;;;3.91;93.89;100391.03;5071995;28;20029;-72
2021/03/21 05:11:52;;;;;;;12.05;8.40;;;;;;;3.88;93.36;100410.31;5072088;28;20027;-72
2021/03/21 05:14:27;;;;;;;12.90;9.27;;;;;;;3.86;93.39;100391.84;5073347;28;20052;-71
2021/03/21 05:17:16;;;;;;;13.13;8.65;;;;;;;3.85;93.50;100380.94;5073494;28;20501;-72
2021/03/21 05:20:04;;;;;;;13.75;8.38;;;;;;;3.82;94.23;100372.56;5071812;28;20036;-72
2021/03/21 05:23:01;;;;;;;12.48;9.05;;;;;;;3.81;94.64;100371.72;5072491;28;20043;-73
2021/03/21 05:25:34;;;;;;;12.45;8.82;;;;;;;3.79;93.57;100370.00;5071614;28;20032;-72
2021/03/21 05:28:15;;;;;;;13.93;8.98;;;;;;;3.79;93.56;100362.47;5093145;28;20024;-72
2021/03/21 05:30:41;;;;;;;13.50;9.60;;;;;;;3.82;94.63;100377.59;5093124;28;20081;-72
2021/03/21 05:33:08;;;;;;;13.65;9.30;;;;;;;3.76;94.42;100359.94;5093098;28;20274;-72
2021/03/21 05:35:39;;;;;;;14.80;9.90;;;;;;;3.81;94.11;100374.22;5092836;28;20032;-72
2021/03/21 05:38:16;;;;;;;15.18;10.18;;;;;;;3.82;94.21;100380.09;5075070;28;20028;-72
2021/03/21 05:41:10;;;;;;;13.93;9.43;;;;;;;3.82;94.34;100377.59;5075080;28;20038;-72
2021/03/21 05:43:37;;;;;;;15.55;10.63;;;;;;;3.77;94.90;100381.72;5093149;28;20039;-72
2021/03/21 05:46:25;;;;;;;17.85;11.30;;;;;;;3.76;95.46;100380.06;5074466;28;20036;-72
2021/03/21 05:49:13;;;;;;;16.63;11.35;;;;;;;3.82;95.05;100392.66;5092937;28;20031;-72
2021/03/21 05:52:01;;;;;;;17.48;10.95;;;;;;;3.81;94.58;100394.34;5093008;28;20110;-73
2021/03/21 05:54:38;;;;;;;14.65;9.70;;;;;;;3.80;95.45;100381.75;5074778;28;20508;-72
2021/03/21 05:57:45;;;;;;;12.80;8.35;;;;;;;3.76;94.11;100380.06;5074752;28;20503;-72
2021/03/21 06:00:39;;;;;;;13.68;10.10;;;;;;;3.77;95.15;100380.06;4975004;28;20484;-71
2021/03/21 06:03:55;;;;;;;13.77;10.63;;;;;;;3.76;95.56;100388.44;4991124;28;20039;-70
2021/03/21 06:06:54;;;;;;;13.52;9.43;;;;;;;3.90;94.66;100389.34;4950638;28;20052;-70
2021/03/21 06:09:36;;;;;;;13.60;9.60;;;;;;;3.78;95.14;100391.81;4974688;28;20096;-72
2021/03/21 06:12:13;;;;;;;;;;;;;;;3.85;94.68;100392.66;4975040;28;20049;-72
2021/03/21 06:15:04;;;;;;;15.60;10.30;;;;;;;3.89;94.89;100401.91;4990841;28;19914;-71
2021/03/21 06:18:10;;;;;;;13.43;9.45;;;;;;;3.89;94.89;100395.22;5092532;28;20074;-70
2021/03/21 06:20:53;;;;;;;11.70;8.30;;;;;;;4.09;95.19;100395.31;5092168;28;20039;-70
2021/03/21 06:23:42;;;;;;;10.00;6.95;;;;;;;3.87;93.88;100399.41;5092193;28;20028;-71
2021/03/21 06:26:20;;;;;;;11.93;7.65;;;;;;;3.93;94.27;100398.59;5089980;28;20429;-71
2021/03/21 06:28:59;;;;;;;13.57;9.00;;;;;;;4.04;94.61;100394.47;5068113;28;20075;-74
2021/03/21 06:31:34;;;;;;;11.90;7.82;;;;;;;3.87;94.15;100398.56;5068300;28;20036;-71
2021/03/21 06:34:19;;;;;;;10.70;7.55;;;;;;;3.98;93.94;100386.91;4705524;28;9999910;-71
2021/03/21 06:37:05;;;;;;;12.30;8.85;;;;;;;4.01;93.58;100391.91;5047904;28;20024;-71
2021/03/21 06:40:01;;;;;;;11.25;7.70;;;;;;;3.91;94.09;100372.59;5062971;28;20043;-71
2021/03/21 06:42:48;;;;;;;13.27;8.48;;;;;;;4.06;94.12;100377.72;5067014;28;20572;-71
2021/03/21 06:45:19;;;;;;;13.65;8.98;;;;;;;4.00;95.01;100360.06;5067560;28;20036;-71
2021/03/21 06:48:22;;;;;;;14.60;9.07;;;;;;;4.13;93.17;100379.41;5067416;28;20565;-72
2021/03/21 06:51:03;;;;;;;16.17;9.90;;;;;;;4.11;92.54;100378.56;5050047;28;20083;-72
2021/03/21 06:53:58;;;;;;;18.58;11.60;;;;;;;4.20;93.51;100383.63;5049444;28;20040;-71
2021/03/21 06:56:50;;;;;;;17.55;11.20;;;;;;;4.15;91.89;100395.34;5058142;28;20468;-71
2021/03/21 06:59:34;;;;;;;17.17;10.68;;;;;;;4.13;91.92;100391.97;5049952;28;20057;-71
2021/03/21 07:02:11;;;;;;;15.18;10.85;;;;;;;4.15;91.97;100395.34;5067213;28;20028;-70
2021/03/21 07:05:07;;;;;;;16.58;10.38;;;;;;;4.05;91.55;100394.47;5049488;28;20035;-71
2021/03/21 07:07:58;;;;;;;20.20;13.35;;;;;;;4.27;92.20;100415.53;5049847;28;20032;-71
2021/03/21 07:10:56;;;;;;;18.80;11.43;;;;;;;4.20;91.02;100412.13;5067209;28;20033;-69
2021/03/21 07:13:46;;;;;;;19.50;11.85;;;;;;;4.24;91.85;100415.50;5066603;28;20498;-70
2021/03/21 07:16:49;;;;;;;19.75;13.60;;;;;;;4.27;90.61;100407.97;5067250;28;20464;-73
2021/03/21 07:19:42;;;;;;;18.25;12.52;;;;;;;4.20;91.16;100389.50;5063322;28;20119;-71
2021/03/21 07:22:48;;;;;;;20.20;13.18;;;;;;;4.28;91.39;100392.03;5067905;28;20107;-71
2021/03/21 07:25:35;;;;;;;20.38;12.15;;;;;;;4.24;89.83;100388.69;5067170;28;20094;-71
2021/03/21 07:28:01;;;;;;;21.17;14.23;;;;;;;4.38;89.78;100388.72;5047307;28;20128;-71
2021/03/21 07:31:06;;;;;;;22.70;15.35;;;;;;;4.49;90.97;100384.59;5047075;28;20024;-71
2021/03/21 07:34:04;;;;;;;21.27;14.77;;;;;;;4.67;90.34;100384.63;5042804;28;20127;-70
2021/03/21 07:36:55;;;;;;;25.35;16.20;;;;;;;4.78;89.04;100388.00;5050296;28;20139;-71
2021/03/21 07:39:49;;;;;;;27.52;17.65;;;;;;;4.83;87.77;100383.81;5067090;28;20060;-71
2021/03/21 07:42:41;;;;;;;25.35;16.75;;;;;;;4.87;87.66;100398.06;5067089;28;20502;-71
2021/03/21 07:45:32;;;;;;;23.50;15.27;;;;;;;4.96;87.16;100399.78;5049536;28;20105;-71
2021/03/21 07:48:07;;;;;;;23.90;15.88;;;;;;;5.00;85.39;100392.25;5066524;28;20282;-74
2021/03/21 07:51:07;;;;;;;31.23;20.02;;;;;;;5.01;85.35;100386.34;5067801;28;20131;-72
2021/03/21 07:53:54;;;;;;;28.83;17.42;;;;;;;5.05;86.19;100383.00;5066768;28;20209;-70
2021/03/21 07:56:33;;;;;;;20.67;13.65;;;;;;;5.08;85.30;100387.19;5049436;28;20068;-72
2021/03/21 07:59:03;;;;;;;23.02;15.77;;;;;;;5.10;86.06;100386.38;5066317;28;20035;-72
2021/03/21 08:01:29;;;;;;;19.02;12.45;;;;;;;4.87;85.30;100370.38;5067852;28;20126;-73
2021/03/21 08:04:25;;;;;;;17.50;12.15;;;;;;;5.14;84.53;100377.97;5049978;28;20048;-72
2021/03/21 08:07:12;;;;;;;21.30;14.48;;;;;;;5.11;86.46;100372.91;5049354;28;20028;-72
2021/03/21 08:09:39;;;;;;;21.00;13.07;;;;;;;5.07;87.04;100375.47;5067464;28;20584;-72
2021/03/21 08:12:20;;;;;;;23.73;15.95;;;;;;;5.20;87.24;100374.59;5069774;28;20051;-74
2021/03/21 08:15:00;;;;;;;21.02;13.60;;;;;;;5.14;87.10;100372.09;5071483;28;20146;-75
2021/03/21 08:17:32;;;;;;;18.25;11.15;;;;;;;5.09;86.69;100371.25;5070793;28;20032;-74
2021/03/21 08:20:03;;;;;;;18.95;13.15;;;;;;;5.00;87.13;100362.00;5071041;28;20028;-73
2021/03/21 08:22:30;;;;;;;21.55;13.18;;;;;;;5.15;87.81;100381.34;5068452;28;20036;-73
2021/03/21 08:25:04;;;;;;;21.33;14.32;;;;;;;5.13;87.59;100368.72;5069379;28;20548;-73
2021/03/21 08:27:33;;;;;;;20.75;13.77;;;;;;;5.23;89.00;100370.41;5087259;28;20460;-72
2021/03/21 08:30:05;;;;;;;22.40;14.02;;;;;;;5.26;88.87;100380.50;5072640;28;20066;-73
2021/03/21 08:32:34;;;;;;;;;;;;;;;5.11;89.82;100387.22;5085935;28;20111;-74
2021/03/21 08:35:17;;;;;;;20.40;11.63;;;;;;;5.10;89.78;100383.84;5069597;28;19943;-74
2021/03/21 08:37:57;;;;;;;15.18;10.15;;;;;;;5.04;88.52;100378.81;5069427;28;20654;-73
2021/03/21 08:40:40;;;;;;;18.33;11.82;;;;;;;5.21;88.07;100378.78;5070400;28;20029;-73
2021/03/21 08:43:28;;;;;;;17.25;11.93;;;;;;;5.29;88.85;100372.91;5069217;28;20067;-73
2021/03/21 08:45:57;;;;;;;18.17;11.43;;;;;;;5.05;90.31;100365.34;5070112;28;20114;-72
2021/03/21 08:48:27;;;;;;;14.75;10.18;;;;;;;5.06;88.64;100358.66;5070192;28;20031;-72
2021/03/21 08:50:58;;;;;;;18.48;12.30;;;;;;;5.19;89.03;100355.28;5069165;28;20033;-73
2021/03/21 08:53:30;;;;;;;14.65;9.65;;;;;;;4.99;89.93;100362.00;5069696;28;20086;-75
2021/03/21 08:56:13;;;;;;;17.77;11.88;;;;;;;5.25;90.20;100366.19;5069282;28;20036;-73
2021/03/21 08:58:40;;;;;;;18.10;11.02;;;;;;;5.11;89.40;100359.50;5070928;28;20028;-75
2021/03/21 09:01:16;;;;;;;18.45;12.07;;;;;;;5.24;89.28;100354.44;5068779;28;20043;-74
2021/03/21 09:03:42;;;;;;;16.95;11.27;;;;;;;5.09;88.70;100349.41;5052506;28;20055;-73
2021/03/21 09:06:26;;;;;;;21.00;12.77;;;;;;;5.20;90.32;100332.63;5069284;28;20508;-73
2021/03/21 09:08:52;;;;;;;18.80;13.63;;;;;;;5.31;90.27;100344.38;5068491;28;20505;-73
2021/03/21 09:11:34;;;;;;;18.45;11.85;;;;;;;5.17;89.38;100340.16;5069024;28;20058;-72
2021/03/21 09:14:13;;;;;;;19.10;11.68;;;;;;;5.13;89.66;100345.22;5069813;28;20059;-74
2021/03/21 09:17:16;;;;;;;21.48;15.05;;;;;;;5.48;89.12;100342.66;5052401;28;20024;-74
2021/03/21 09:19:47;;;;;;;25.20;16.27;;;;;;;5.51;89.83;100338.44;5070443;28;20036;-75
2021/03/21 09:22:40;;;;;;;24.30;17.08;;;;;;;5.76;88.64;100337.56;5051709;28;20037;-75
2021/03/21 09:25:15;;;;;;;19.65;12.40;;;;;;;5.41;88.17;100341.81;5069831;28;20032;-73
2021/03/21 09:27:45;;;;;;;18.45;12.98;;;;;;;5.62;87.77;100340.94;5052046;28;20048;-74
2021/03/21 09:30:40;;;;;;;19.60;13.20;;;;;;;5.52;89.18;100340.13;5049798;28;20483;-71
2021/03/21 09:33:13;;;;;;;20.05;13.13;;;;;;;5.56;88.64;100320.78;5058843;28;20041;-73
2021/03/21 09:35:54;;;;;;;16.08;10.98;;;;;;;5.41;87.28;100313.28;5069690;28;20682;-73
2021/03/21 09:38:25;;;;;;;21.33;14.82;;;;;;;5.59;88.51;100318.25;5068908;28;20039;-73
2021/03/21 09:41:12;;;;;;;17.58;12.07;;;;;;;5.50;86.58;100319.13;5051444;28;20417;-73
2021/03/21 09:43:40;;;;;;;19.48;13.43;;;;;;;5.56;88.30;100314.06;5069016;28;20092;-73
2021/03/21 09:46:35;;;;;;;18.58;12.10;;;;;;;5.48;88.71;100323.34;5068024;28;20029;-73
2021/03/21 09:49:17;;;;;;;16.85;11.98;;;;;;;5.49;88.61;100324.16;5068903;28;21008;-73
2021/03/21 09:51:51;;;;;;;17.42;11.85;;;;;;;5.42;89.65;100325.03;5050957;28;20024;-73
2021/03/21 09:54:41;;;;;;;14.60;10.73;;;;;;;5.42;88.14;100315.78;5049949;28;20532;-73
2021/03/21 09:57:18;;;;;;;17.75;12.13;;;;;;;5.58;89.34;100311.53;5068517;28;20036;-74
2021/03/21 10:00:02;;;;;;;19.70;13.35;;;;;;;5.63;87.91;100265.28;5067974;28;20040;-74
2021/03/21 10:02:35;;;;;;;18.25;12.90;;;;;;;5.57;89.30;100259.41;5067881;28;20095;-73
2021/03/21 10:05:10;;;;;;;15.85;11.43;;;;;;;5.33;88.90;100254.47;5051423;28;20043;-74
2021/03/21 10:07:53;;;;;;;17.52;10.82;;;;;;;5.23;89.01;100249.44;5050190;28;20055;-74
2021/03/21 10:10:24;;;;;;;15.25;11.00;;;;;;;5.27;88.82;100246.06;5069444;28;20501;-73
2021/03/21 10:12:50;;;;;;;14.77;10.75;;;;;;;5.31;88.84;100246.09;5068720;28;20111;-73
2021/03/21 10:15:20;;;;;;;15.35;11.52;;;;;;;5.32;90.05;100251.13;5068411;28;20457;-73
2021/03/21 10:17:48;;;;;;;15.40;9.90;;;;;;;5.28;89.26;100247.75;5068966;28;20047;-73
2021/03/21 10:20:15;;;;;;;18.00;11.77;;;;;;;5.48;88.63;100249.38;5051078;28;20028;-73
2021/03/21 10:22:41;;;;;;;19.80;12.50;;;;;;;5.59;87.26;100242.59;5068476;28;20114;-73
2021/03/21 10:25:13;;;;;;;17.27;11.52;;;;;;;5.75;87.87;100236.66;5068685;28;20525;-72
2021/03/21 10:27:44;;;;;;;17.30;12.57;;;;;;;5.83;87.03;100213.13;5086577;28;20119;-74
2021/03/21 10:30:26;;;;;;;16.38;11.05;;;;;;;5.57;87.24;100234.22;5071641;28;20048;-72
2021/03/21 10:33:00;;;;;;;23.67;15.05;;;;;;;5.80;86.50;100234.97;5061447;28;20033;-73
2021/03/21 10:35:31;;;;;;;17.65;12.15;;;;;;;5.68;88.08;100247.63;5068698;28;20032;-73
2021/03/21 10:38:03;;;;;;;18.55;13.93;;;;;;;5.79;86.53;100245.88;5068758;28;20112;-73
2021/03/21 10:40:29;;;;;;;17.90;11.95;;;;;;;5.69;84.73;100244.25;5068383;28;20025;-73
2021/03/21 10:43:17;;;;;;;15.80;10.85;;;;;;;5.68;85.77;100240.91;5067951;28;20131;-73
2021/03/21 10:45:51;;;;;;;16.58;12.00;;;;;;;5.83;84.55;100234.94;5066473;28;20052;-74
2021/03/21 10:48:17;;;;;;;20.02;14.00;;;;;;;6.00;85.83;100236.56;5067369;28;20028;-73
2021/03/21 10:50:42;;;;;;;18.42;13.20;;;;;;;5.91;85.27;100240.81;5067895;28;20035;-72
2021/03/21 10:53:32;;;;;;;19.88;14.05;;;;;;;5.94;84.14;100239.13;5066914;28;20496;-72
2021/03/21 10:56:06;;;;;;;19.40;14.20;;;;;;;6.00;83.67;100238.28;5068414;28;20521;-73
2021/03/21 10:58:47;;;;;;;17.60;9.57;;;;;;;5.82;83.96;100238.31;5066730;28;20121;-72
2021/03/21 11:01:19;;;;;;;22.58;12.52;;;;;;;5.98;83.94;100225.63;5065162;28;20101;-75
2021/03/21 11:03:57;;;;;;;19.90;10.93;;;;;;;5.90;82.58;100247.53;5068501;28;20158;-72
2021/03/21 11:06:27;;;;;;;15.55;12.10;;;;;;;5.98;83.71;100233.22;5067569;28;20039;-74
2021/03/21 11:09:06;;;;;;;21.23;14.98;;;;;;;5.97;83.98;100233.22;5067816;28;20478;-73
2021/03/21 11:11:42;;;;;;;25.00;15.02;;;;;;;5.99;83.99;100216.41;5050209;28;20101;-75
2021/03/21 11:14:24;;;;;;;19.10;13.43;;;;;;;5.88;84.73;100233.28;5068112;28;20025;-73
2021/03/21 11:16:56;;;;;;;18.73;13.10;;;;;;;5.93;85.46;100227.38;5049211;28;20395;-71
2021/03/21 11:19:25;;;;;;;20.27;12.40;;;;;;;5.87;87.20;100219.81;5050170;28;20036;-74
2021/03/21 11:21:51;;;;;;;18.10;12.95;;;;;;;5.85;86.86;100215.63;5068067;28;20055;-73
2021/03/21 11:24:27;;;;;;;16.83;12.32;;;;;;;5.80;84.92;100222.34;5067713;28;20391;-73
2021/03/21 11:26:54;;;;;;;18.60;12.70;;;;;;;5.75;86.93;100213.97;5056426;28;20419;-72
2021/03/21 11:29:32;;;;;;;19.50;12.93;;;;;;;5.77;86.01;100197.13;5029380;28;20037;-73
2021/03/21 11:32:11;;;;;;;17.40;11.43;;;;;;;5.78;86.07;100181.19;5047404;28;20021;-71
2021/03/21 11:34:37;;;;;;;18.17;11.57;;;;;;;5.73;85.33;100176.16;5049180;28;20029;-72
2021/03/21 11:37:21;;;;;;;15.13;10.18;;;;;;;5.75;83.78;100168.56;5048746;28;20035;-74
2021/03/21 11:39:55;;;;;;;13.68;9.88;;;;;;;5.74;85.55;100171.94;5066987;28;20032;-73
2021/03/21 11:42:35;;;;;;;16.13;10.98;;;;;;;5.70;85.68;100161.06;5036556;28;20032;-73
2021/03/21 11:45:24;;;;;;;17.25;12.20;;;;;;;5.94;84.45;100177.75;5032998;28;20573;-74
2021/03/21 11:48:10;;;;;;;18.33;13.18;;;;;;;6.01;84.77;100166.75;5034113;28;20032;-73
2021/03/21 11:50:39;;;;;;;17.92;11.80;;;;;;;5.85;85.04;100173.59;5051494;28;20056;-72
2021/03/21 11:53:07;;;;;;;17.38;11.50;;;;;;;5.85;84.13;100160.97;5050724;28;20039;-73
2021/03/21 11:55:39;;;;;;;23.00;13.63;;;;;;;6.06;84.13;100157.50;5051451;28;20037;-73
2021/03/21 11:58:37;;;;;;;16.67;11.57;;;;;;;5.95;85.88;100146.63;5033768;28;20029;-72
2021/03/21 12:01:12;;;;;;;14.07;10.57;;;;;;;5.88;86.31;100142.47;5050591;28;20128;-72
2021/03/21 12:04:09;;;;;;;17.27;12.00;;;;;;;6.03;84.63;100149.94;5051197;28;20025;-73
2021/03/21 12:06:45;;;;;;;22.63;14.68;;;;;;;6.25;86.35;100138.81;5030016;28;20087;-73
2021/03/21 12:09:31;;;;;;;19.50;12.43;;;;;;;5.95;86.31;100147.47;5051538;28;20029;-74
2021/03/21 12:12:01;;;;;;;24.95;14.15;;;;;;;6.03;84.60;100142.34;5051785;28;20405;-75
2021/03/21 12:14:46;;;;;;;23.75;14.52;;;;;;;5.93;85.39;100140.75;5033684;28;20033;-75